createdAt,value
2022-10-20T00:02:20.506Z,100191.50
2022-10-20T00:04:47.387Z,100205.09
2022-10-20T00:07:14.154Z,100192.94
2022-10-20T00:09:40.998Z,100214.31
2022-10-20T00:12:07.922Z,100216.53
2022-10-20T00:14:34.587Z,100221.97
2022-10-20T00:17:01.553Z,100216.31
2022-10-20T00:19:28.985Z,100228.00
2022-10-20T00:21:56.360Z,100203.59
2022-10-20T00:24:23.205Z,100227.78
2022-10-20T00:26:50.144Z,100210.03
2022-10-20T00:31:44.639Z,100226.53
2022-10-20T00:34:12.095Z,100233.78
2022-10-20T00:36:39.875Z,100231.44
2022-10-20T00:39:07.194Z,100231.47
2022-10-20T00:41:34.136Z,100227.44
2022-10-20T00:44:39.301Z,100243.25
2022-10-20T00:47:09.343Z,100245.06
2022-10-20T00:49:36.128Z,100244.09
2022-10-20T00:52:03.082Z,100237.97
2022-10-20T00:54:30.192Z,100240.63
2022-10-20T00:56:58.100Z,100235.34
2022-10-20T00:59:29.842Z,100238.81
2022-10-20T01:01:57.875Z,100240.78
2022-10-20T01:04:29.305Z,100231.91
2022-10-20T01:06:57.586Z,100251.34
2022-10-20T01:09:24.398Z,100238.13
2022-10-20T01:12:01.983Z,100242.56
2022-10-20T01:15:08.688Z,100238.28
2022-10-20T01:17:56.785Z,100245.19
2022-10-20T01:20:38.640Z,100236.75
2022-10-20T01:23:34.223Z,100232.88
2022-10-20T01:26:55.171Z,100223.50
2022-10-20T01:29:24.603Z,100239.03
2022-10-20T01:32:34.883Z,100227.13
2022-10-20T01:35:07.181Z,100239.91
2022-10-20T01:37:50.395Z,100247.00
2022-10-20T01:40:29.380Z,100238.50
2022-10-20T01:43:01.358Z,100248.78
2022-10-20T01:45:32.303Z,100249.63
2022-10-20T01:48:03.441Z,100249.50
2022-10-20T01:50:31.374Z,100249.78
2022-10-20T01:52:59.214Z,100259.75
2022-10-20T01:55:26.409Z,100265.72
2022-10-20T01:58:12.613Z,100257.78
2022-10-20T02:00:40.291Z,100261.41
2022-10-20T02:03:15.211Z,100263.06
2022-10-20T02:05:51.094Z,100262.09
2022-10-20T02:08:44.550Z,100265.03
2022-10-20T02:11:35.373Z,100262.09
2022-10-20T02:14:05.025Z,100266.38
2022-10-20T02:16:36.510Z,100273.47
2022-10-20T02:19:07.756Z,100262.53
2022-10-20T02:21:34.523Z,100254.63
2022-10-20T02:24:06.330Z,100272.38
2022-10-20T02:26:34.117Z,100265.03
2022-10-20T02:29:09.773Z,100274.03
2022-10-20T02:31:36.681Z,100279.31
2022-10-20T02:34:03.946Z,100268.34
2022-10-20T02:36:30.644Z,100271.41
2022-10-20T02:38:57.503Z,100279.31
2022-10-20T02:41:24.191Z,100270.41
2022-10-20T02:43:50.787Z,100283.88
2022-10-20T02:46:17.732Z,100260.72
2022-10-20T02:48:44.417Z,100288.19
2022-10-20T02:51:11.815Z,100280.28
2022-10-20T02:53:38.994Z,100290.84
2022-10-20T02:56:05.998Z,100283.88
2022-10-20T02:58:32.664Z,100288.91
2022-10-20T03:00:59.551Z,100274.34
2022-10-20T03:03:26.226Z,100271.84
2022-10-20T03:05:52.831Z,100276.84
2022-10-20T03:08:20.002Z,100273.81
2022-10-20T03:10:46.635Z,100295.31
2022-10-20T03:13:14.845Z,100293.09
2022-10-20T03:15:41.829Z,100291.56
2022-10-20T03:18:08.486Z,100300.63
2022-10-20T03:20:35.141Z,100282.97
2022-10-20T03:23:02.057Z,100292.41
2022-10-20T03:25:28.721Z,100279.81
2022-10-20T03:27:55.354Z,100290.75
2022-10-20T03:30:22.215Z,100294.09
2022-10-20T03:32:48.845Z,100294.09
2022-10-20T03:35:15.616Z,100286.03
2022-10-20T03:37:42.467Z,100292.41
2022-10-20T03:40:09.550Z,100294.09
2022-10-20T03:42:36.521Z,100294.09
2022-10-20T03:45:04.449Z,100288.81
2022-10-20T03:47:31.259Z,100302.16
2022-10-20T03:49:57.913Z,100283.12
2022-10-20T03:52:25.029Z,100274.13
2022-10-20T03:54:51.796Z,100294.66
2022-10-20T03:57:19.486Z,100299.09
2022-10-20T03:59:46.723Z,100292.03
2022-10-20T04:02:46.507Z,100301.72
2022-10-20T04:05:15.803Z,100294.94
2022-10-20T04:07:42.603Z,100301.31
2022-10-20T04:10:10.165Z,100291.87
2022-10-20T04:12:37.406Z,100298.16
2022-10-20T04:15:05.922Z,100299.66
2022-10-20T04:17:32.644Z,100284.53
2022-10-20T04:19:59.792Z,100293.56
2022-10-20T04:22:26.452Z,100289.13
2022-10-20T04:24:53.116Z,100300.78
2022-10-20T04:27:20.138Z,100294.69
2022-10-20T04:29:48.013Z,100303.72
2022-10-20T04:32:14.876Z,100289.69
2022-10-20T04:34:41.804Z,100302.84
2022-10-20T04:37:08.436Z,100312.59
2022-10-20T04:39:35.055Z,100315.22
2022-10-20T04:42:02.151Z,100322.28
2022-10-20T04:44:29.565Z,100312.88
2022-10-20T04:46:56.213Z,100325.75
2022-10-20T04:49:23.345Z,100318.00
2022-10-20T04:51:49.982Z,100323.12
2022-10-20T04:54:16.745Z,100323.12
2022-10-20T04:56:43.731Z,100337.84
2022-10-20T04:59:13.507Z,100336.72
2022-10-20T05:01:40.826Z,100339.34
2022-10-20T05:04:08.697Z,100323.56
2022-10-20T05:06:35.406Z,100358.94
2022-10-20T05:09:05.074Z,100346.56
2022-10-20T05:11:36.147Z,100353.22
2022-10-20T05:14:02.854Z,100353.78
2022-10-20T05:16:29.506Z,100349.06
2022-10-20T05:18:58.058Z,100355.16
2022-10-20T05:21:28.124Z,100363.66
2022-10-20T05:23:57.190Z,100360.16
2022-10-20T05:26:25.050Z,100364.47
2022-10-20T05:28:52.684Z,100367.09
2022-10-20T05:31:22.281Z,100368.78
2022-10-20T05:33:51.422Z,100374.06
2022-10-20T05:36:21.635Z,100369.75
2022-10-20T05:38:49.270Z,100370.72
2022-10-20T05:41:18.790Z,100373.34
2022-10-20T05:43:50.061Z,100385.56
2022-10-20T05:46:17.786Z,100380.16
2022-10-20T05:48:45.382Z,100386.53
2022-10-20T05:51:21.024Z,100392.81
2022-10-20T05:53:48.126Z,100401.00
2022-10-20T05:56:17.827Z,100398.47
2022-10-20T05:58:45.292Z,100394.62
2022-10-20T06:01:18.489Z,100385.59
2022-10-20T06:03:50.566Z,100388.34
2022-10-20T06:06:18.993Z,100399.03
2022-10-20T06:08:46.291Z,100411.97
2022-10-20T06:11:14.789Z,100414.59
2022-10-20T06:13:41.747Z,100423.47
2022-10-20T06:16:11.467Z,100421.97
2022-10-20T06:18:38.874Z,100423.75
2022-10-20T06:21:08.770Z,100421.09
2022-10-20T06:23:35.812Z,100412.94
2022-10-20T06:26:04.710Z,100425.28
2022-10-20T06:28:32.676Z,100428.59
2022-10-20T06:31:00.334Z,100430.13
2022-10-20T06:33:30.158Z,100416.00
2022-10-20T06:36:01.328Z,100413.78
2022-10-20T06:38:28.787Z,100428.75
2022-10-20T06:40:55.587Z,100423.22
2022-10-20T06:43:22.776Z,100440.81
2022-10-20T06:46:04.749Z,100413.06
2022-10-20T06:48:32.992Z,100435.16
2022-10-20T06:51:11.161Z,100442.09
2022-10-20T06:53:42.664Z,100447.34
2022-10-20T06:56:21.067Z,100436.53
2022-10-20T06:58:49.669Z,100451.53
2022-10-20T07:01:18.321Z,100436.41
2022-10-20T07:03:47.339Z,100450.56
2022-10-20T07:06:19.704Z,100459.31
2022-10-20T07:08:47.654Z,100445.97
2022-10-20T07:11:19.916Z,100452.66
2022-10-20T07:13:49.285Z,100471.94
2022-10-20T07:16:19.358Z,100442.66
2022-10-20T07:18:46.667Z,100465.13
2022-10-20T07:21:16.291Z,100459.84
2022-10-20T07:23:43.418Z,100472.78
2022-10-20T07:26:25.473Z,100468.47
2022-10-20T07:28:55.935Z,100472.09
2022-10-20T07:31:35.189Z,100459.56
2022-10-20T07:34:23.330Z,100470.97
2022-10-20T07:36:50.562Z,100463.91
2022-10-20T07:39:17.506Z,100484.03
2022-10-20T07:41:45.660Z,100466.41
2022-10-20T07:44:12.804Z,100451.25
2022-10-20T07:46:39.759Z,100472.22
2022-10-20T07:49:31.387Z,100486.81
2022-10-20T07:51:53.452Z,100488.47
2022-10-20T07:54:20.307Z,100494.59
2022-10-20T07:56:46.955Z,100485.69
2022-10-20T07:59:14.286Z,100483.88
2022-10-20T08:01:41.829Z,100494.31
2022-10-20T08:04:08.867Z,100484.59
2022-10-20T08:06:35.597Z,100483.31
2022-10-20T08:09:02.382Z,100497.91
2022-10-20T08:11:29.387Z,100486.81
2022-10-20T08:13:56.040Z,100477.09
2022-10-20T08:16:31.791Z,100494.03
2022-10-20T08:19:28.276Z,100488.47
2022-10-20T08:21:54.882Z,100490.41
2022-10-20T08:24:22.152Z,100500.44
2022-10-20T08:26:48.770Z,100500.16
2022-10-20T08:29:15.504Z,100503.75
2022-10-20T08:31:44.565Z,100508.06
2022-10-20T08:34:11.610Z,100522.91
2022-10-20T08:36:38.530Z,100523.91
2022-10-20T08:39:06.470Z,100507.25
2022-10-20T08:42:02.491Z,100527.53
2022-10-20T08:44:29.194Z,100537.12
2022-10-20T08:46:56.653Z,100508.88
2022-10-20T08:49:26.672Z,100520.16
2022-10-20T08:51:53.765Z,100539.63
2022-10-20T08:54:20.515Z,100518.06
2022-10-20T08:56:47.456Z,100536.56
2022-10-20T08:59:33.187Z,100537.38
2022-10-20T09:02:00.555Z,100558.09
2022-10-20T09:04:57.649Z,100549.75
2022-10-20T09:07:27.249Z,100549.31
2022-10-20T09:10:04.361Z,100542.78
2022-10-20T09:12:32.506Z,100548.50
2022-10-20T09:14:59.501Z,100560.72
2022-10-20T09:17:26.148Z,100566.53
2022-10-20T09:19:57.188Z,100559.19
2022-10-20T09:22:30.841Z,100567.41
2022-10-20T09:25:00.231Z,100560.28
2022-10-20T09:27:35.480Z,100564.28
2022-10-20T09:30:25.967Z,100561.25
2022-10-20T09:32:53.399Z,100565.97
2022-10-20T09:35:31.771Z,100568.91
2022-10-20T09:38:18.254Z,100573.22
2022-10-20T09:40:55.695Z,100580.16
2022-10-20T09:43:23.801Z,100575.72
2022-10-20T09:45:54.783Z,100588.78
2022-10-20T09:48:28.876Z,100589.63
2022-10-20T09:50:58.638Z,100580.59
2022-10-20T09:54:04.689Z,100588.38
2022-10-20T09:56:38.367Z,100584.59
2022-10-20T09:59:40.320Z,100586.13
2022-10-20T10:02:13.496Z,100582.94
2022-10-20T10:04:51.844Z,100575.41
2022-10-20T10:07:24.623Z,100594.28
2022-10-20T10:09:57.429Z,100582.19
2022-10-20T10:12:26.471Z,100593.28
2022-10-20T10:14:55.903Z,100605.94
2022-10-20T10:17:34.469Z,100608.72
2022-10-20T10:20:06.815Z,100603.66
2022-10-20T10:22:35.403Z,100596.44
2022-10-20T10:25:03.880Z,100606.66
2022-10-20T10:27:33.080Z,100618.19
2022-10-20T10:30:27.383Z,100615.78
2022-10-20T10:32:55.188Z,100618.00
2022-10-20T10:35:43.527Z,100622.84
2022-10-20T10:38:13.719Z,100620.91
2022-10-20T10:40:55.416Z,100600.69
2022-10-20T10:43:35.289Z,100624.41
2022-10-20T10:46:07.075Z,100613.09
2022-10-20T10:48:37.049Z,100643.44
2022-10-20T10:51:10.699Z,100614.31
2022-10-20T10:53:53.936Z,100608.66
2022-10-20T10:56:39.229Z,100624.13
2022-10-20T10:59:12.530Z,100606.84
2022-10-20T11:02:13.327Z,100620.25
2022-10-20T11:04:46.308Z,100622.22
2022-10-20T11:07:39.378Z,100619.87
2022-10-20T11:10:39.040Z,100633.25
2022-10-20T11:13:30.047Z,100631.56
2022-10-20T11:16:11.589Z,100644.13
2022-10-20T11:19:15.687Z,100635.53
2022-10-20T11:22:13.374Z,100638.31
2022-10-20T11:25:03.095Z,100628.41
2022-10-20T11:27:35.713Z,100631.56
2022-10-20T11:30:15.373Z,100642.16
2022-10-20T11:32:58.265Z,100634.53
2022-10-20T11:35:30.989Z,100632.88
2022-10-20T11:38:26.504Z,100641.06
2022-10-20T11:41:03.302Z,100657.97
2022-10-20T11:43:56.821Z,100644.03
2022-10-20T11:46:40.607Z,100652.97
2022-10-20T11:49:12.253Z,100673.28
2022-10-20T11:52:22.518Z,100665.47
2022-10-20T11:54:55.075Z,100676.22
2022-10-20T11:57:36.392Z,100668.44
2022-10-20T12:00:34.057Z,100671.22
2022-10-20T12:03:25.887Z,100681.69
2022-10-20T12:06:28.030Z,100677.50
2022-10-20T12:08:54.894Z,100687.25
2022-10-20T12:11:28.118Z,100681.66
2022-10-20T12:14:06.811Z,100685.75
2022-10-20T12:16:52.141Z,100690.31
2022-10-20T12:19:31.546Z,100693.09
2022-10-20T12:22:05.574Z,100685.88
2022-10-20T12:24:43.407Z,100697.69
2022-10-20T12:27:10.103Z,100712.06
2022-10-20T12:29:37.083Z,100706.19
2022-10-20T12:32:21.912Z,100702.44
2022-10-20T12:34:53.175Z,100729.72
2022-10-20T12:37:27.178Z,100728.72
2022-10-20T12:40:20.314Z,100737.50
2022-10-20T12:42:49.413Z,100735.97
2022-10-20T12:45:19.249Z,100735.69
2022-10-20T12:47:55.215Z,100749.50
2022-10-20T12:50:42.480Z,100755.31
2022-10-20T12:53:13.517Z,100749.72
2022-10-20T12:55:42.174Z,100759.22
2022-10-20T12:58:18.149Z,100748.19
2022-10-20T13:00:48.335Z,100766.72
2022-10-20T13:03:39.865Z,100764.50
2022-10-20T13:06:22.238Z,100779.50
2022-10-20T13:09:04.198Z,100790.78
2022-10-20T13:11:41.038Z,100782.03
2022-10-20T13:14:13.969Z,100785.50
2022-10-20T13:16:47.439Z,100790.63
2022-10-20T13:19:23.492Z,100822.56
2022-10-20T13:21:51.587Z,100798.44
2022-10-20T13:24:32.047Z,100801.22
2022-10-20T13:27:08.781Z,100810.00
2022-10-20T13:29:43.179Z,100814.31
2022-10-20T13:32:33.235Z,100825.62
2022-10-20T13:35:06.024Z,100816.00
2022-10-20T13:37:42.131Z,100815.44
2022-10-20T13:40:23.338Z,100824.25
2022-10-20T13:43:09.568Z,100829.63
2022-10-20T13:46:00.618Z,100816.00
2022-10-20T13:48:49.642Z,100844.28
2022-10-20T13:51:21.765Z,100837.00
2022-10-20T13:53:52.874Z,100853.59
2022-10-20T13:56:31.730Z,100851.78
2022-10-20T13:59:06.363Z,100867.37
2022-10-20T14:01:36.312Z,100856.66
2022-10-20T14:04:23.540Z,100856.66
2022-10-20T14:06:50.240Z,100863.06
2022-10-20T14:09:19.176Z,100890.94
2022-10-20T14:11:59.800Z,100863.63
2022-10-20T14:14:29.939Z,100878.81
2022-10-20T14:17:01.888Z,100877.00
2022-10-20T14:19:30.692Z,100878.81
2022-10-20T14:22:09.529Z,100885.94
2022-10-20T14:24:48.530Z,100880.63
2022-10-20T14:27:25.845Z,100892.19
2022-10-20T14:29:54.071Z,100899.59
2022-10-20T14:32:27.755Z,100884.56
2022-10-20T14:34:54.643Z,100897.09
2022-10-20T14:37:34.929Z,100900.72
2022-10-20T14:40:17.754Z,100892.66
2022-10-20T14:42:44.824Z,100912.44
2022-10-20T14:45:23.830Z,100920.53
2022-10-20T14:47:52.393Z,100921.66
2022-10-20T14:50:33.182Z,100923.88
2022-10-20T14:53:28.365Z,100920.81
2022-10-20T14:55:58.860Z,100935.03
2022-10-20T14:58:59.322Z,100935.84
2022-10-20T15:01:32.067Z,100931.56
2022-10-20T15:04:05.210Z,100935.03
2022-10-20T15:06:33.024Z,100937.53
2022-10-20T15:09:00.014Z,100947.59
2022-10-20T15:11:28.288Z,100943.94
2022-10-20T15:13:58.995Z,100952.03
2022-10-20T15:16:42.445Z,100958.19
2022-10-20T15:19:13.577Z,100959.00
2022-10-20T15:21:40.223Z,100961.66
2022-10-20T15:24:07.359Z,100965.13
2022-10-20T15:26:34.502Z,100953.41
2022-10-20T15:29:01.198Z,100970.28
2022-10-20T15:31:30.335Z,100972.09
2022-10-20T15:33:58.398Z,100983.38
2022-10-20T15:36:41.768Z,100976.28
2022-10-20T15:39:09.497Z,100977.13
2022-10-20T15:41:36.876Z,100987.72
2022-10-20T15:44:14.381Z,100992.87
2022-10-20T15:46:42.618Z,100991.03
2022-10-20T15:49:09.463Z,100989.41
2022-10-20T15:51:40.023Z,100988.53
2022-10-20T15:54:07.744Z,100998.03
2022-10-20T15:56:35.434Z,101005.00
2022-10-20T15:59:02.995Z,101003.31
2022-10-20T16:01:30.313Z,101006.94
2022-10-20T16:03:57.478Z,101019.22
2022-10-20T16:06:24.480Z,101015.75
2022-10-20T16:08:51.840Z,101001.22
2022-10-20T16:11:20.749Z,101029.81
2022-10-20T16:13:48.424Z,101039.56
2022-10-20T16:16:18.326Z,101032.44
2022-10-20T16:18:46.022Z,101038.72
2022-10-20T16:21:12.720Z,101035.09
2022-10-20T16:23:42.436Z,101028.41
2022-10-20T16:26:13.698Z,101044.00
2022-10-20T16:28:41.557Z,101045.69
2022-10-20T16:31:10.637Z,101028.69
2022-10-20T16:33:37.783Z,101043.87
2022-10-20T16:38:39.052Z,101046.53
2022-10-20T16:41:12.731Z,101054.47
2022-10-20T16:43:45.788Z,101054.47
2022-10-20T16:46:14.471Z,101066.88
2022-10-20T16:48:42.725Z,101050.00
2022-10-20T16:51:12.758Z,101066.19
2022-10-20T16:53:39.699Z,101051.97
2022-10-20T16:56:07.535Z,101076.94
2022-10-20T16:58:34.192Z,101065.06
2022-10-20T17:01:06.319Z,101064.09
2022-10-20T17:03:33.263Z,101079.72
2022-10-20T17:06:02.922Z,101078.03
2022-10-20T17:08:32.061Z,101082.50
2022-10-20T17:11:01.066Z,101081.66
2022-10-20T17:13:28.959Z,101085.97
2022-10-20T17:15:57.100Z,101082.19
2022-10-20T17:18:24.302Z,101085.97
2022-10-20T17:20:55.442Z,101088.63
2022-10-20T17:23:23.511Z,101083.31
2022-10-20T17:25:51.439Z,101094.06
2022-10-20T17:28:18.436Z,101081.66
2022-10-20T17:30:47.111Z,101091.69
2022-10-20T17:33:14.225Z,101081.06
2022-10-20T17:35:40.889Z,101092.94
2022-10-20T17:38:07.804Z,101100.19
2022-10-20T17:40:38.418Z,101079.97
2022-10-20T17:43:05.402Z,101109.78
2022-10-20T17:45:34.980Z,101103.06
2022-10-20T17:48:05.296Z,101104.28
2022-10-20T17:50:32.777Z,101086.03
2022-10-20T17:53:01.367Z,101088.13
2022-10-20T17:55:28.667Z,101100.22
2022-10-20T17:57:56.152Z,101089.62
2022-10-20T18:00:37.480Z,101106.91
2022-10-20T18:03:09.782Z,101091.81
2022-10-20T18:05:36.701Z,101107.41
2022-10-20T18:08:03.378Z,101113.09
2022-10-20T18:10:30.251Z,101114.09
2022-10-20T18:12:56.995Z,101107.25
2022-10-20T18:15:23.616Z,101101.81
2022-10-20T18:17:50.543Z,101120.47
2022-10-20T18:20:17.231Z,101126.59
2022-10-20T18:22:45.483Z,101122.16
2022-10-20T18:25:12.508Z,101110.44
2022-10-20T18:27:39.129Z,101110.44
2022-10-20T18:30:08.050Z,101109.59
2022-10-20T18:32:36.579Z,101124.94
2022-10-20T18:35:03.600Z,101123.00
2022-10-20T18:37:30.242Z,101124.81
2022-10-20T18:39:57.177Z,101118.41
2022-10-20T18:42:23.797Z,101126.34
2022-10-20T18:44:50.420Z,101122.03
2022-10-20T18:47:17.392Z,101129.97
2022-10-20T18:49:44.130Z,101129.13
2022-10-20T18:52:10.846Z,101140.56
2022-10-20T18:54:38.212Z,101143.06
2022-10-20T18:57:04.925Z,101142.22
2022-10-20T18:59:31.675Z,101139.84
2022-10-20T19:01:58.613Z,101133.41
2022-10-20T19:04:25.275Z,101135.19
2022-10-20T19:06:52.199Z,101145.25
2022-10-20T19:09:20.955Z,101137.03
2022-10-20T19:14:20.831Z,101162.81
2022-10-20T19:16:48.708Z,101160.88
2022-10-20T19:19:15.951Z,101165.19
2022-10-20T19:21:42.906Z,101167.72
2022-10-20T19:24:18.565Z,101164.25
2022-10-20T19:26:57.200Z,101174.81
2022-10-20T19:29:29.718Z,101167.41
2022-10-20T19:31:59.197Z,101165.59
2022-10-20T19:34:29.051Z,101178.16
2022-10-20T19:36:56.536Z,101162.25
2022-10-20T19:39:27.573Z,101182.75
2022-10-20T19:41:56.047Z,101182.03
2022-10-20T19:44:24.727Z,101185.94
2022-10-20T19:46:52.335Z,101182.28
2022-10-20T19:49:20.428Z,101172.50
2022-10-20T19:51:47.524Z,101176.44
2022-10-20T19:54:14.837Z,101184.50
2022-10-20T19:56:42.403Z,101184.38
2022-10-20T19:59:10.188Z,101173.59
2022-10-20T20:01:38.146Z,101188.97
2022-10-20T20:04:06.192Z,101190.63
2022-10-20T20:06:34.313Z,101189.78
2022-10-20T20:09:04.744Z,101175.41
2022-10-20T20:11:32.218Z,101187.84
2022-10-20T20:14:05.149Z,101190.50
2022-10-20T20:16:32.369Z,101193.88
2022-10-20T20:18:59.107Z,101181.16
2022-10-20T20:21:26.813Z,101187.59
2022-10-20T20:24:00.484Z,101184.94
2022-10-20T20:26:35.674Z,101182.13
2022-10-20T20:29:03.434Z,101189.09
2022-10-20T20:31:32.059Z,101195.53
2022-10-20T20:33:58.736Z,101200.13
2022-10-20T20:36:27.304Z,101194.69
2022-10-20T20:38:57.364Z,101202.91
2022-10-20T20:41:26.096Z,101198.81
2022-10-20T20:43:53.185Z,101196.19
2022-10-20T20:46:22.400Z,101210.97
2022-10-20T20:48:49.822Z,101205.81
2022-10-20T20:51:17.567Z,101200.66
2022-10-20T20:53:44.390Z,101206.75
2022-10-20T20:56:14.222Z,101195.28
2022-10-20T20:58:45.138Z,101208.84
2022-10-20T21:01:20.533Z,101217.72
2022-10-20T21:03:48.157Z,101212.81
2022-10-20T21:06:16.660Z,101211.16
2022-10-20T21:08:46.360Z,101216.44
2022-10-20T21:11:18.867Z,101213.91
2022-10-20T21:13:46.601Z,101216.69
2022-10-20T21:16:25.945Z,101200.78
2022-10-20T21:18:55.412Z,101210.97
2022-10-20T21:21:27.968Z,101211.34
2022-10-20T21:23:56.070Z,101216.91
2022-10-20T21:26:23.994Z,101220.75
2022-10-20T21:28:50.883Z,101226.28
2022-10-20T21:31:19.725Z,101222.22
2022-10-20T21:33:50.974Z,101218.19
2022-10-20T21:36:19.670Z,101225.38
2022-10-20T21:38:47.679Z,101210.53
2022-10-20T21:41:23.150Z,101210.91
2022-10-20T21:43:55.170Z,101229.16
2022-10-20T21:46:31.323Z,101233.87
2022-10-20T21:49:10.765Z,101229.78
2022-10-20T21:51:40.858Z,101216.59
2022-10-20T21:54:12.256Z,101231.25
2022-10-20T21:56:41.178Z,101228.16
2022-10-20T21:59:14.031Z,101235.34
2022-10-20T22:01:40.645Z,101238.22
2022-10-20T22:04:07.684Z,101238.47
2022-10-20T22:06:36.615Z,101232.03
2022-10-20T22:09:04.222Z,101246.19
2022-10-20T22:11:33.671Z,101238.03
2022-10-20T22:14:00.456Z,101254.37
2022-10-20T22:16:30.084Z,101247.63
2022-10-20T22:18:59.021Z,101247.88
2022-10-20T22:21:26.604Z,101248.00
2022-10-20T22:23:54.611Z,101247.41
2022-10-20T22:26:22.366Z,101249.31
2022-10-20T22:28:50.600Z,101263.63
2022-10-20T22:31:18.244Z,101263.00
2022-10-20T22:33:45.256Z,101265.19
2022-10-20T22:36:12.062Z,101260.16
2022-10-20T22:38:38.797Z,101248.75
2022-10-20T22:41:05.792Z,101251.75
2022-10-20T22:43:32.511Z,101269.03
2022-10-20T22:45:59.295Z,101262.44
2022-10-20T22:48:26.280Z,101248.25
2022-10-20T22:50:53.127Z,101263.03
2022-10-20T22:53:19.880Z,101272.59
2022-10-20T22:55:47.095Z,101266.03
2022-10-20T22:58:13.758Z,101271.41
2022-10-20T23:00:41.515Z,101263.81
2022-10-20T23:03:08.432Z,101264.06
2022-10-20T23:05:35.135Z,101263.47
2022-10-20T23:08:01.855Z,101261.41
2022-10-20T23:10:28.873Z,101271.84
2022-10-20T23:12:55.509Z,101277.47
2022-10-20T23:15:22.133Z,101267.63
2022-10-20T23:17:49.089Z,101290.16
2022-10-20T23:20:15.894Z,101294.59
2022-10-20T23:22:42.567Z,101282.59
2022-10-20T23:25:09.665Z,101289.78
2022-10-20T23:27:36.748Z,101295.28
2022-10-20T23:30:04.159Z,101291.94
2022-10-20T23:32:31.006Z,101294.81
2022-10-20T23:34:57.623Z,101293.97
2022-10-20T23:37:24.239Z,101288.66
2022-10-20T23:39:51.129Z,101281.91
2022-10-20T23:42:17.848Z,101298.47
2022-10-20T23:44:44.657Z,101294.16
2022-10-20T23:47:11.699Z,101302.28
2022-10-20T23:49:38.447Z,101300.94
2022-10-20T23:52:05.334Z,101299.03
2022-10-20T23:54:32.237Z,101301.16
2022-10-20T23:56:59.037Z,101296.97
2022-10-20T23:59:25.642Z,101304.97
